sensor_id;sensor_type;location;lat;lon;timestamp;P1;durP1;ratioP1;P2;durP2;ratioP2
73296;SDS011;61524;50.938;11.396;2022-08-01T00:01:36;5.82;;;3.90;;
73296;SDS011;61524;50.938;11.396;2022-08-01T00:04:01;6.93;;;4.03;;
73296;SDS011;61524;50.938;11.396;2022-08-01T00:06:27;5.22;;;3.65;;
73296;SDS011;61524;50.938;11.396;2022-08-01T00:08:53;5.57;;;3.75;;
73296;SDS011;61524;50.938;11.396;2022-08-01T00:11:18;4.93;;;3.70;;
73296;SDS011;61524;50.938;11.396;2022-08-01T00:13:44;5.13;;;3.92;;
73296;SDS011;61524;50.938;11.396;2022-08-01T00:16:09;5.75;;;3.95;;
73296;SDS011;61524;50.938;11.396;2022-08-01T00:18:35;5.80;;;4.03;;
73296;SDS011;61524;50.938;11.396;2022-08-01T00:21:01;8.93;;;4.00;;
73296;SDS011;61524;50.938;11.396;2022-08-01T00:23:27;5.25;;;3.42;;
73296;SDS011;61524;50.938;11.396;2022-08-01T00:25:53;6.35;;;3.90;;
73296;SDS011;61524;50.938;11.396;2022-08-01T00:28:18;4.80;;;3.17;;
73296;SDS011;61524;50.938;11.396;2022-08-01T00:30:43;6.95;;;4.10;;
73296;SDS011;61524;50.938;11.396;2022-08-01T00:33:09;5.43;;;3.53;;
73296;SDS011;61524;50.938;11.396;2022-08-01T00:35:35;7.00;;;4.13;;
73296;SDS011;61524;50.938;11.396;2022-08-01T00:38:00;5.20;;;3.53;;
73296;SDS011;61524;50.938;11.396;2022-08-01T00:40:25;5.50;;;3.60;;
73296;SDS011;61524;50.938;11.396;2022-08-01T00:42:51;7.32;;;3.72;;
73296;SDS011;61524;50.938;11.396;2022-08-01T00:45:16;6.63;;;4.05;;
73296;SDS011;61524;50.938;11.396;2022-08-01T00:47:42;4.85;;;3.53;;
73296;SDS011;61524;50.938;11.396;2022-08-01T00:50:08;6.38;;;3.70;;
73296;SDS011;61524;50.938;11.396;2022-08-01T00:52:34;5.07;;;3.80;;
73296;SDS011;61524;50.938;11.396;2022-08-01T00:55:00;6.13;;;3.80;;
73296;SDS011;61524;50.938;11.396;2022-08-01T00:57:26;5.40;;;4.05;;
73296;SDS011;61524;50.938;11.396;2022-08-01T00:59:52;5.95;;;4.00;;
73296;SDS011;61524;50.938;11.396;2022-08-01T01:02:18;5.25;;;3.80;;
73296;SDS011;61524;50.938;11.396;2022-08-01T01:04:43;4.75;;;3.30;;
73296;SDS011;61524;50.938;11.396;2022-08-01T01:07:12;7.35;;;3.92;;
73296;SDS011;61524;50.938;11.396;2022-08-01T01:13:08;6.53;;;3.83;;
73296;SDS011;61524;50.938;11.396;2022-08-01T01:15:47;5.10;;;3.65;;
73296;SDS011;61524;50.938;11.396;2022-08-01T01:18:22;5.88;;;4.35;;
73296;SDS011;61524;50.938;11.396;2022-08-01T01:20:58;4.90;;;3.65;;
73296;SDS011;61524;50.938;11.396;2022-08-01T01:26:50;5.95;;;3.80;;
73296;SDS011;61524;50.938;11.396;2022-08-01T01:32:15;4.68;;;3.53;;
73296;SDS011;61524;50.938;11.396;2022-08-01T01:34:45;4.88;;;3.08;;
73296;SDS011;61524;50.938;11.396;2022-08-01T01:37:15;5.15;;;3.58;;
73296;SDS011;61524;50.938;11.396;2022-08-01T01:39:44;4.60;;;3.00;;
73296;SDS011;61524;50.938;11.396;2022-08-01T01:42:13;4.20;;;3.10;;
73296;SDS011;61524;50.938;11.396;2022-08-01T01:44:41;4.78;;;3.25;;
73296;SDS011;61524;50.938;11.396;2022-08-01T01:47:09;4.30;;;2.63;;
73296;SDS011;61524;50.938;11.396;2022-08-01T01:49:37;4.43;;;2.60;;
73296;SDS011;61524;50.938;11.396;2022-08-01T01:52:06;4.22;;;2.25;;
73296;SDS011;61524;50.938;11.396;2022-08-01T01:54:37;3.50;;;2.30;;
73296;SDS011;61524;50.938;11.396;2022-08-01T01:57:07;2.47;;;1.40;;
73296;SDS011;61524;50.938;11.396;2022-08-01T01:59:34;4.28;;;1.70;;
73296;SDS011;61524;50.938;11.396;2022-08-01T02:02:01;3.30;;;1.73;;
73296;SDS011;61524;50.938;11.396;2022-08-01T02:04:29;3.30;;;1.60;;
73296;SDS011;61524;50.938;11.396;2022-08-01T02:06:56;4.35;;;1.92;;
73296;SDS011;61524;50.938;11.396;2022-08-01T02:09:23;3.08;;;1.70;;
73296;SDS011;61524;50.938;11.396;2022-08-01T02:11:51;3.25;;;2.00;;
73296;SDS011;61524;50.938;11.396;2022-08-01T02:14:18;2.90;;;1.80;;
73296;SDS011;61524;50.938;11.396;2022-08-01T02:16:47;3.78;;;1.90;;
73296;SDS011;61524;50.938;11.396;2022-08-01T02:19:15;3.40;;;2.00;;
73296;SDS011;61524;50.938;11.396;2022-08-01T02:26:58;3.60;;;1.80;;
73296;SDS011;61524;50.938;11.396;2022-08-01T02:30:08;4.85;;;2.05;;
73296;SDS011;61524;50.938;11.396;2022-08-01T02:32:30;2.70;;;1.70;;
73296;SDS011;61524;50.938;11.396;2022-08-01T02:35:00;4.68;;;1.98;;
73296;SDS011;61524;50.938;11.396;2022-08-01T02:37:29;3.70;;;2.20;;
73296;SDS011;61524;50.938;11.396;2022-08-01T02:39:58;5.32;;;1.90;;
73296;SDS011;61524;50.938;11.396;2022-08-01T02:42:25;3.50;;;2.20;;
73296;SDS011;61524;50.938;11.396;2022-08-01T02:44:53;3.17;;;1.77;;
73296;SDS011;61524;50.938;11.396;2022-08-01T02:47:20;4.30;;;2.10;;
73296;SDS011;61524;50.938;11.396;2022-08-01T02:49:47;5.38;;;2.08;;
73296;SDS011;61524;50.938;11.396;2022-08-01T02:52:16;4.03;;;2.10;;
73296;SDS011;61524;50.938;11.396;2022-08-01T02:54:45;3.60;;;2.10;;
73296;SDS011;61524;50.938;11.396;2022-08-01T02:57:14;4.55;;;2.30;;
73296;SDS011;61524;50.938;11.396;2022-08-01T02:59:42;4.38;;;2.33;;
73296;SDS011;61524;50.938;11.396;2022-08-01T03:02:09;4.22;;;2.15;;
73296;SDS011;61524;50.938;11.396;2022-08-01T03:04:36;5.05;;;2.15;;
73296;SDS011;61524;50.938;11.396;2022-08-01T03:07:04;3.50;;;2.28;;
73296;SDS011;61524;50.938;11.396;2022-08-01T03:09:35;3.58;;;1.98;;
73296;SDS011;61524;50.938;11.396;2022-08-01T03:12:11;3.53;;;2.10;;
73296;SDS011;61524;50.938;11.396;2022-08-01T03:14:44;5.07;;;2.20;;
73296;SDS011;61524;50.938;11.396;2022-08-01T03:17:12;3.60;;;2.33;;
73296;SDS011;61524;50.938;11.396;2022-08-01T03:19:41;3.60;;;2.10;;
73296;SDS011;61524;50.938;11.396;2022-08-01T03:22:11;3.90;;;1.92;;
73296;SDS011;61524;50.938;11.396;2022-08-01T03:24:39;3.78;;;2.35;;
73296;SDS011;61524;50.938;11.396;2022-08-01T03:27:06;3.35;;;2.10;;
73296;SDS011;61524;50.938;11.396;2022-08-01T03:29:33;4.65;;;2.30;;
73296;SDS011;61524;50.938;11.396;2022-08-01T03:32:01;3.72;;;2.10;;
73296;SDS011;61524;50.938;11.396;2022-08-01T03:34:27;4.20;;;2.72;;
73296;SDS011;61524;50.938;11.396;2022-08-01T03:40:03;3.83;;;2.15;;
73296;SDS011;61524;50.938;11.396;2022-08-01T03:42:41;3.80;;;2.20;;
73296;SDS011;61524;50.938;11.396;2022-08-01T03:45:15;4.07;;;2.50;;
73296;SDS011;61524;50.938;11.396;2022-08-01T03:47:49;4.18;;;2.30;;
73296;SDS011;61524;50.938;11.396;2022-08-01T03:50:20;4.10;;;2.47;;
73296;SDS011;61524;50.938;11.396;2022-08-01T03:52:47;3.72;;;2.13;;
73296;SDS011;61524;50.938;11.396;2022-08-01T03:55:15;4.03;;;2.28;;
73296;SDS011;61524;50.938;11.396;2022-08-01T03:57:43;4.55;;;2.63;;
73296;SDS011;61524;50.938;11.396;2022-08-01T04:00:10;4.88;;;2.40;;
73296;SDS011;61524;50.938;11.396;2022-08-01T04:02:36;4.30;;;2.53;;
73296;SDS011;61524;50.938;11.396;2022-08-01T04:05:02;4.50;;;2.58;;
73296;SDS011;61524;50.938;11.396;2022-08-01T04:07:29;6.15;;;2.88;;
73296;SDS011;61524;50.938;11.396;2022-08-01T04:09:56;4.13;;;2.28;;
73296;SDS011;61524;50.938;11.396;2022-08-01T04:12:22;3.90;;;2.25;;
73296;SDS011;61524;50.938;11.396;2022-08-01T04:14:48;6.20;;;2.50;;
73296;SDS011;61524;50.938;11.396;2022-08-01T04:17:14;3.95;;;2.33;;
73296;SDS011;61524;50.938;11.396;2022-08-01T04:22:06;4.65;;;2.70;;
73296;SDS011;61524;50.938;11.396;2022-08-01T04:24:33;4.30;;;2.78;;
73296;SDS011;61524;50.938;11.396;2022-08-01T04:27:01;4.43;;;2.53;;
73296;SDS011;61524;50.938;11.396;2022-08-01T04:29:30;4.30;;;2.67;;
73296;SDS011;61524;50.938;11.396;2022-08-01T04:31:59;4.60;;;2.75;;
73296;SDS011;61524;50.938;11.396;2022-08-01T04:34:27;4.10;;;2.45;;
73296;SDS011;61524;50.938;11.396;2022-08-01T04:36:55;5.75;;;2.75;;
73296;SDS011;61524;50.938;11.396;2022-08-01T04:39:24;4.55;;;2.47;;
73296;SDS011;61524;50.938;11.396;2022-08-01T04:41:53;5.85;;;2.97;;
73296;SDS011;61524;50.938;11.396;2022-08-01T04:44:22;4.10;;;2.55;;
73296;SDS011;61524;50.938;11.396;2022-08-01T04:46:48;3.53;;;2.55;;
73296;SDS011;61524;50.938;11.396;2022-08-01T04:49:15;3.60;;;2.33;;
73296;SDS011;61524;50.938;11.396;2022-08-01T04:51:51;5.53;;;2.25;;
73296;SDS011;61524;50.938;11.396;2022-08-01T04:54:17;4.35;;;2.30;;
73296;SDS011;61524;50.938;11.396;2022-08-01T04:56:43;4.40;;;2.40;;
73296;SDS011;61524;50.938;11.396;2022-08-01T04:59:08;4.07;;;2.40;;
73296;SDS011;61524;50.938;11.396;2022-08-01T05:01:53;3.90;;;2.42;;
73296;SDS011;61524;50.938;11.396;2022-08-01T05:04:18;4.15;;;2.42;;
73296;SDS011;61524;50.938;11.396;2022-08-01T05:06:44;3.85;;;2.30;;
73296;SDS011;61524;50.938;11.396;2022-08-01T05:09:09;3.53;;;2.30;;
73296;SDS011;61524;50.938;11.396;2022-08-01T05:11:34;3.80;;;1.98;;
73296;SDS011;61524;50.938;11.396;2022-08-01T05:14:00;5.32;;;2.60;;
73296;SDS011;61524;50.938;11.396;2022-08-01T05:16:25;4.03;;;2.50;;
73296;SDS011;61524;50.938;11.396;2022-08-01T05:18:51;4.18;;;2.40;;
73296;SDS011;61524;50.938;11.396;2022-08-01T05:21:17;6.57;;;2.03;;
73296;SDS011;61524;50.938;11.396;2022-08-01T05:23:42;3.78;;;2.03;;
73296;SDS011;61524;50.938;11.396;2022-08-01T05:26:08;3.50;;;1.90;;
73296;SDS011;61524;50.938;11.396;2022-08-01T05:28:33;4.13;;;1.98;;
73296;SDS011;61524;50.938;11.396;2022-08-01T05:30:59;3.97;;;2.40;;
73296;SDS011;61524;50.938;11.396;2022-08-01T05:33:24;3.30;;;2.05;;
73296;SDS011;61524;50.938;11.396;2022-08-01T05:35:50;3.83;;;2.22;;
73296;SDS011;61524;50.938;11.396;2022-08-01T05:38:15;3.40;;;2.00;;
73296;SDS011;61524;50.938;11.396;2022-08-01T05:40:41;7.28;;;2.28;;
73296;SDS011;61524;50.938;11.396;2022-08-01T05:43:07;3.53;;;2.30;;
73296;SDS011;61524;50.938;11.396;2022-08-01T05:45:32;4.80;;;2.40;;
73296;SDS011;61524;50.938;11.396;2022-08-01T05:47:57;3.50;;;1.90;;
73296;SDS011;61524;50.938;11.396;2022-08-01T05:50:23;4.28;;;2.20;;
73296;SDS011;61524;50.938;11.396;2022-08-01T05:52:48;4.78;;;2.15;;
73296;SDS011;61524;50.938;11.396;2022-08-01T05:55:14;3.88;;;1.85;;
73296;SDS011;61524;50.938;11.396;2022-08-01T05:57:39;5.10;;;2.08;;
73296;SDS011;61524;50.938;11.396;2022-08-01T06:00:05;4.07;;;2.00;;
73296;SDS011;61524;50.938;11.396;2022-08-01T06:02:31;6.97;;;2.20;;
73296;SDS011;61524;50.938;11.396;2022-08-01T06:04:56;4.53;;;2.20;;
73296;SDS011;61524;50.938;11.396;2022-08-01T06:07:22;3.35;;;1.95;;
73296;SDS011;61524;50.938;11.396;2022-08-01T06:09:47;4.78;;;2.15;;
73296;SDS011;61524;50.938;11.396;2022-08-01T06:12:13;4.28;;;1.98;;
73296;SDS011;61524;50.938;11.396;2022-08-01T06:14:38;4.47;;;2.00;;
73296;SDS011;61524;50.938;11.396;2022-08-01T06:17:04;3.92;;;2.38;;
73296;SDS011;61524;50.938;11.396;2022-08-01T06:19:29;3.95;;;2.05;;
73296;SDS011;61524;50.938;11.396;2022-08-01T06:21:55;3.30;;;2.10;;
73296;SDS011;61524;50.938;11.396;2022-08-01T06:24:20;3.50;;;2.08;;
73296;SDS011;61524;50.938;11.396;2022-08-01T06:26:48;3.92;;;1.92;;
73296;SDS011;61524;50.938;11.396;2022-08-01T06:29:13;3.70;;;1.98;;
73296;SDS011;61524;50.938;11.396;2022-08-01T06:31:39;3.55;;;1.92;;
73296;SDS011;61524;50.938;11.396;2022-08-01T06:34:04;3.90;;;2.08;;
73296;SDS011;61524;50.938;11.396;2022-08-01T06:36:29;3.58;;;2.20;;
73296;SDS011;61524;50.938;11.396;2022-08-01T06:38:55;3.55;;;2.00;;
73296;SDS011;61524;50.938;11.396;2022-08-01T06:41:20;4.65;;;2.35;;
73296;SDS011;61524;50.938;11.396;2022-08-01T06:43:46;5.47;;;2.63;;
73296;SDS011;61524;50.938;11.396;2022-08-01T06:46:11;5.57;;;2.40;;
73296;SDS011;61524;50.938;11.396;2022-08-01T06:48:37;4.47;;;2.47;;
73296;SDS011;61524;50.938;11.396;2022-08-01T06:51:04;3.78;;;2.10;;
73296;SDS011;61524;50.938;11.396;2022-08-01T06:53:33;4.68;;;2.33;;
73296;SDS011;61524;50.938;11.396;2022-08-01T06:55:59;4.65;;;2.47;;
73296;SDS011;61524;50.938;11.396;2022-08-01T06:58:25;3.92;;;2.25;;
73296;SDS011;61524;50.938;11.396;2022-08-01T07:00:51;4.53;;;2.22;;
73296;SDS011;61524;50.938;11.396;2022-08-01T07:03:16;4.95;;;2.08;;
73296;SDS011;61524;50.938;11.396;2022-08-01T07:05:42;2.53;;;1.30;;
73296;SDS011;61524;50.938;11.396;2022-08-01T07:08:07;4.88;;;1.67;;
73296;SDS011;61524;50.938;11.396;2022-08-01T07:10:32;3.00;;;1.23;;
73296;SDS011;61524;50.938;11.396;2022-08-01T07:12:58;3.03;;;1.40;;
73296;SDS011;61524;50.938;11.396;2022-08-01T07:15:23;2.40;;;1.23;;
73296;SDS011;61524;50.938;11.396;2022-08-01T07:17:51;2.70;;;1.20;;
73296;SDS011;61524;50.938;11.396;2022-08-01T07:20:17;2.70;;;1.40;;
73296;SDS011;61524;50.938;11.396;2022-08-01T07:22:43;2.90;;;1.50;;
73296;SDS011;61524;50.938;11.396;2022-08-01T07:25:09;2.90;;;1.60;;
73296;SDS011;61524;50.938;11.396;2022-08-01T07:27:34;2.85;;;1.20;;
73296;SDS011;61524;50.938;11.396;2022-08-01T07:30:00;3.83;;;1.20;;
73296;SDS011;61524;50.938;11.396;2022-08-01T07:32:26;2.38;;;1.27;;
73296;SDS011;61524;50.938;11.396;2022-08-01T07:34:54;2.92;;;1.02;;
73296;SDS011;61524;50.938;11.396;2022-08-01T07:37:19;3.15;;;1.40;;
73296;SDS011;61524;50.938;11.396;2022-08-01T07:39:45;3.13;;;1.30;;
73296;SDS011;61524;50.938;11.396;2022-08-01T07:42:10;2.45;;;1.33;;
73296;SDS011;61524;50.938;11.396;2022-08-01T07:44:36;2.42;;;1.30;;
73296;SDS011;61524;50.938;11.396;2022-08-01T07:47:02;3.00;;;1.48;;
73296;SDS011;61524;50.938;11.396;2022-08-01T07:49:28;4.15;;;1.20;;
73296;SDS011;61524;50.938;11.396;2022-08-01T07:51:54;3.67;;;1.45;;
73296;SDS011;61524;50.938;11.396;2022-08-01T07:54:19;3.00;;;1.63;;
73296;SDS011;61524;50.938;11.396;2022-08-01T07:56:45;3.00;;;1.67;;
73296;SDS011;61524;50.938;11.396;2022-08-01T07:59:11;3.15;;;1.60;;
73296;SDS011;61524;50.938;11.396;2022-08-01T08:01:36;3.67;;;1.65;;
73296;SDS011;61524;50.938;11.396;2022-08-01T08:04:01;2.83;;;1.60;;
73296;SDS011;61524;50.938;11.396;2022-08-01T08:06:27;3.55;;;1.67;;
73296;SDS011;61524;50.938;11.396;2022-08-01T08:08:52;3.10;;;1.60;;
73296;SDS011;61524;50.938;11.396;2022-08-01T08:11:18;3.40;;;1.70;;
73296;SDS011;61524;50.938;11.396;2022-08-01T08:13:44;4.82;;;1.65;;
73296;SDS011;61524;50.938;11.396;2022-08-01T08:16:09;4.63;;;1.85;;
73296;SDS011;61524;50.938;11.396;2022-08-01T08:18:35;3.67;;;1.58;;
73296;SDS011;61524;50.938;11.396;2022-08-01T08:21:00;4.07;;;1.77;;
73296;SDS011;61524;50.938;11.396;2022-08-01T08:23:26;3.40;;;1.90;;
73296;SDS011;61524;50.938;11.396;2022-08-01T08:26:10;4.03;;;1.40;;
73296;SDS011;61524;50.938;11.396;2022-08-01T08:28:36;2.90;;;1.33;;
73296;SDS011;61524;50.938;11.396;2022-08-01T08:31:01;1.88;;;1.10;;
73296;SDS011;61524;50.938;11.396;2022-08-01T08:33:27;2.70;;;1.20;;
73296;SDS011;61524;50.938;11.396;2022-08-01T08:35:53;3.47;;;1.20;;
73296;SDS011;61524;50.938;11.396;2022-08-01T08:38:19;2.15;;;1.17;;
73296;SDS011;61524;50.938;11.396;2022-08-01T08:40:45;3.15;;;1.30;;
73296;SDS011;61524;50.938;11.396;2022-08-01T08:43:11;4.20;;;1.30;;
73296;SDS011;61524;50.938;11.396;2022-08-01T08:45:36;3.47;;;1.25;;
73296;SDS011;61524;50.938;11.396;2022-08-01T08:48:04;5.25;;;1.42;;
73296;SDS011;61524;50.938;11.396;2022-08-01T08:50:31;2.30;;;1.20;;
73296;SDS011;61524;50.938;11.396;2022-08-01T08:52:57;3.33;;;1.23;;
73296;SDS011;61524;50.938;11.396;2022-08-01T08:55:26;2.58;;;1.33;;
73296;SDS011;61524;50.938;11.396;2022-08-01T08:57:53;3.65;;;1.40;;
73296;SDS011;61524;50.938;11.396;2022-08-01T09:00:19;2.67;;;1.08;;
73296;SDS011;61524;50.938;11.396;2022-08-01T09:02:46;2.92;;;1.48;;
73296;SDS011;61524;50.938;11.396;2022-08-01T09:05:14;3.45;;;1.20;;
73296;SDS011;61524;50.938;11.396;2022-08-01T09:07:39;1.77;;;0.98;;
73296;SDS011;61524;50.938;11.396;2022-08-01T09:10:05;2.30;;;1.00;;
73296;SDS011;61524;50.938;11.396;2022-08-01T09:12:32;3.00;;;1.20;;
73296;SDS011;61524;50.938;11.396;2022-08-01T09:14:57;2.25;;;0.80;;
73296;SDS011;61524;50.938;11.396;2022-08-01T09:17:23;1.95;;;0.90;;
73296;SDS011;61524;50.938;11.396;2022-08-01T09:19:50;2.20;;;0.98;;
73296;SDS011;61524;50.938;11.396;2022-08-01T09:22:18;1.55;;;0.82;;
73296;SDS011;61524;50.938;11.396;2022-08-01T09:25:06;1.77;;;1.02;;
73296;SDS011;61524;50.938;11.396;2022-08-01T09:27:34;2.20;;;0.82;;
73296;SDS011;61524;50.938;11.396;2022-08-01T09:30:13;2.75;;;0.73;;
73296;SDS011;61524;50.938;11.396;2022-08-01T09:35:38;3.35;;;1.00;;
73296;SDS011;61524;50.938;11.396;2022-08-01T09:38:13;1.42;;;0.70;;
73296;SDS011;61524;50.938;11.396;2022-08-01T09:43:19;1.17;;;0.60;;
73296;SDS011;61524;50.938;11.396;2022-08-01T09:45:45;2.45;;;0.90;;
73296;SDS011;61524;50.938;11.396;2022-08-01T09:48:11;1.30;;;0.73;;
73296;SDS011;61524;50.938;11.396;2022-08-01T09:50:40;1.63;;;0.80;;
73296;SDS011;61524;50.938;11.396;2022-08-01T09:53:13;2.70;;;0.80;;
73296;SDS011;61524;50.938;11.396;2022-08-01T09:55:40;1.35;;;0.60;;
73296;SDS011;61524;50.938;11.396;2022-08-01T09:58:06;1.10;;;0.70;;
73296;SDS011;61524;50.938;11.396;2022-08-01T10:00:32;1.52;;;0.77;;
73296;SDS011;61524;50.938;11.396;2022-08-01T10:02:59;1.48;;;0.70;;
73296;SDS011;61524;50.938;11.396;2022-08-01T10:05:42;3.50;;;1.05;;
73296;SDS011;61524;50.938;11.396;2022-08-01T10:08:08;1.65;;;0.70;;
73296;SDS011;61524;50.938;11.396;2022-08-01T10:10:33;1.10;;;0.70;;
73296;SDS011;61524;50.938;11.396;2022-08-01T10:12:59;1.63;;;0.73;;
73296;SDS011;61524;50.938;11.396;2022-08-01T10:15:25;1.70;;;0.73;;
73296;SDS011;61524;50.938;11.396;2022-08-01T10:17:53;2.00;;;0.82;;
73296;SDS011;61524;50.938;11.396;2022-08-01T10:20:21;2.75;;;0.70;;
73296;SDS011;61524;50.938;11.396;2022-08-01T10:22:51;2.00;;;0.75;;
73296;SDS011;61524;50.938;11.396;2022-08-01T10:25:19;0.77;;;0.40;;
73296;SDS011;61524;50.938;11.396;2022-08-01T10:27:45;1.25;;;0.60;;
73296;SDS011;61524;50.938;11.396;2022-08-01T10:30:14;2.08;;;0.70;;
73296;SDS011;61524;50.938;11.396;2022-08-01T10:32:40;1.38;;;0.75;;
73296;SDS011;61524;50.938;11.396;2022-08-01T10:35:09;1.30;;;0.70;;
73296;SDS011;61524;50.938;11.396;2022-08-01T10:37:41;0.80;;;0.50;;
73296;SDS011;61524;50.938;11.396;2022-08-01T10:40:07;0.73;;;0.43;;
73296;SDS011;61524;50.938;11.396;2022-08-01T10:42:34;1.48;;;0.50;;
73296;SDS011;61524;50.938;11.396;2022-08-01T10:45:00;1.73;;;0.60;;
73296;SDS011;61524;50.938;11.396;2022-08-01T10:48:09;3.63;;;0.75;;
73296;SDS011;61524;50.938;11.396;2022-08-01T10:50:43;0.98;;;0.63;;
73296;SDS011;61524;50.938;11.396;2022-08-01T10:55:46;1.90;;;0.73;;
73296;SDS011;61524;50.938;11.396;2022-08-01T10:58:12;1.50;;;0.80;;
73296;SDS011;61524;50.938;11.396;2022-08-01T11:00:37;1.02;;;0.60;;
73296;SDS011;61524;50.938;11.396;2022-08-01T11:03:03;0.77;;;0.50;;
73296;SDS011;61524;50.938;11.396;2022-08-01T11:05:33;1.83;;;0.63;;
73296;SDS011;61524;50.938;11.396;2022-08-01T11:08:02;1.88;;;0.60;;
73296;SDS011;61524;50.938;11.396;2022-08-01T11:10:41;1.80;;;0.82;;
73296;SDS011;61524;50.938;11.396;2022-08-01T11:13:10;1.35;;;0.80;;
73296;SDS011;61524;50.938;11.396;2022-08-01T11:15:37;1.48;;;0.70;;
73296;SDS011;61524;50.938;11.396;2022-08-01T11:18:14;2.22;;;0.70;;
73296;SDS011;61524;50.938;11.396;2022-08-01T11:20:55;1.30;;;0.70;;
73296;SDS011;61524;50.938;11.396;2022-08-01T11:23:22;1.35;;;0.68;;
73296;SDS011;61524;50.938;11.396;2022-08-01T11:30:43;3.03;;;0.73;;
73296;SDS011;61524;50.938;11.396;2022-08-01T11:33:10;2.40;;;0.70;;
73296;SDS011;61524;50.938;11.396;2022-08-01T11:35:38;1.90;;;0.60;;
73296;SDS011;61524;50.938;11.396;2022-08-01T11:43:56;0.90;;;0.50;;
73296;SDS011;61524;50.938;11.396;2022-08-01T11:51:56;1.95;;;0.55;;
73296;SDS011;61524;50.938;11.396;2022-08-01T11:54:28;0.77;;;0.50;;
73296;SDS011;61524;50.938;11.396;2022-08-01T11:56:56;0.95;;;0.60;;
73296;SDS011;61524;50.938;11.396;2022-08-01T11:59:22;1.27;;;0.60;;
73296;SDS011;61524;50.938;11.396;2022-08-01T12:01:48;0.82;;;0.50;;
73296;SDS011;61524;50.938;11.396;2022-08-01T12:04:14;2.35;;;0.60;;
73296;SDS011;61524;50.938;11.396;2022-08-01T12:06:40;1.30;;;0.70;;
73296;SDS011;61524;50.938;11.396;2022-08-01T12:09:18;2.38;;;0.70;;
73296;SDS011;61524;50.938;11.396;2022-08-01T12:11:48;1.58;;;0.50;;
73296;SDS011;61524;50.938;11.396;2022-08-01T12:14:20;2.40;;;0.57;;
73296;SDS011;61524;50.938;11.396;2022-08-01T12:16:50;1.42;;;0.70;;
73296;SDS011;61524;50.938;11.396;2022-08-01T12:19:21;2.35;;;0.70;;
73296;SDS011;61524;50.938;11.396;2022-08-01T12:24:35;2.08;;;0.52;;
73296;SDS011;61524;50.938;11.396;2022-08-01T12:27:01;2.65;;;0.80;;
73296;SDS011;61524;50.938;11.396;2022-08-01T12:29:37;0.95;;;0.63;;
73296;SDS011;61524;50.938;11.396;2022-08-01T12:32:21;1.65;;;0.57;;
73296;SDS011;61524;50.938;11.396;2022-08-01T12:35:01;1.95;;;0.63;;
73296;SDS011;61524;50.938;11.396;2022-08-01T12:37:29;1.42;;;0.68;;
73296;SDS011;61524;50.938;11.396;2022-08-01T12:39:55;1.45;;;0.65;;
73296;SDS011;61524;50.938;11.396;2022-08-01T12:42:22;1.80;;;0.60;;
73296;SDS011;61524;50.938;11.396;2022-08-01T12:44:50;1.08;;;0.63;;
73296;SDS011;61524;50.938;11.396;2022-08-01T12:47:17;0.50;;;0.50;;
73296;SDS011;61524;50.938;11.396;2022-08-01T12:49:45;0.90;;;0.60;;
73296;SDS011;61524;50.938;11.396;2022-08-01T12:52:13;1.17;;;0.52;;
73296;SDS011;61524;50.938;11.396;2022-08-01T12:57:33;0.68;;;0.60;;
73296;SDS011;61524;50.938;11.396;2022-08-01T13:02:36;1.08;;;0.60;;
73296;SDS011;61524;50.938;11.396;2022-08-01T13:05:02;1.23;;;0.57;;
73296;SDS011;61524;50.938;11.396;2022-08-01T13:10:01;0.75;;;0.50;;
73296;SDS011;61524;50.938;11.396;2022-08-01T13:12:28;0.63;;;0.40;;
73296;SDS011;61524;50.938;11.396;2022-08-01T13:14:54;0.98;;;0.50;;
73296;SDS011;61524;50.938;11.396;2022-08-01T13:17:29;0.57;;;0.43;;
73296;SDS011;61524;50.938;11.396;2022-08-01T13:20:00;0.45;;;0.40;;
73296;SDS011;61524;50.938;11.396;2022-08-01T13:22:32;0.45;;;0.40;;
73296;SDS011;61524;50.938;11.396;2022-08-01T13:25:14;2.00;;;0.52;;
73296;SDS011;61524;50.938;11.396;2022-08-01T13:27:41;0.68;;;0.43;;
73296;SDS011;61524;50.938;11.396;2022-08-01T13:30:14;1.17;;;0.55;;
73296;SDS011;61524;50.938;11.396;2022-08-01T13:32:41;1.52;;;0.60;;
73296;SDS011;61524;50.938;11.396;2022-08-01T13:35:09;1.73;;;0.60;;
73296;SDS011;61524;50.938;11.396;2022-08-01T13:37:37;1.08;;;0.68;;
73296;SDS011;61524;50.938;11.396;2022-08-01T13:40:06;2.55;;;0.60;;
73296;SDS011;61524;50.938;11.396;2022-08-01T13:42:32;1.60;;;0.70;;
73296;SDS011;61524;50.938;11.396;2022-08-01T13:44:58;1.27;;;0.55;;
73296;SDS011;61524;50.938;11.396;2022-08-01T13:47:23;1.20;;;0.55;;
73296;SDS011;61524;50.938;11.396;2022-08-01T13:49:49;0.88;;;0.45;;
73296;SDS011;61524;50.938;11.396;2022-08-01T13:52:14;0.93;;;0.50;;
73296;SDS011;61524;50.938;11.396;2022-08-01T13:54:40;1.02;;;0.50;;
73296;SDS011;61524;50.938;11.396;2022-08-01T13:57:05;0.85;;;0.60;;
73296;SDS011;61524;50.938;11.396;2022-08-01T13:59:31;2.22;;;0.60;;
73296;SDS011;61524;50.938;11.396;2022-08-01T14:01:56;1.02;;;0.60;;
73296;SDS011;61524;50.938;11.396;2022-08-01T14:04:22;2.92;;;0.70;;
73296;SDS011;61524;50.938;11.396;2022-08-01T14:06:48;2.90;;;0.50;;
73296;SDS011;61524;50.938;11.396;2022-08-01T14:09:13;1.98;;;0.70;;
73296;SDS011;61524;50.938;11.396;2022-08-01T14:11:41;2.17;;;0.65;;
73296;SDS011;61524;50.938;11.396;2022-08-01T14:14:07;1.20;;;0.50;;
73296;SDS011;61524;50.938;11.396;2022-08-01T14:16:33;0.65;;;0.50;;
73296;SDS011;61524;50.938;11.396;2022-08-01T14:18:59;1.13;;;0.57;;
73296;SDS011;61524;50.938;11.396;2022-08-01T14:21:24;2.60;;;0.60;;
73296;SDS011;61524;50.938;11.396;2022-08-01T14:23:50;0.85;;;0.55;;
73296;SDS011;61524;50.938;11.396;2022-08-01T14:26:15;0.63;;;0.40;;
73296;SDS011;61524;50.938;11.396;2022-08-01T14:28:41;1.38;;;0.65;;
73296;SDS011;61524;50.938;11.396;2022-08-01T14:31:06;1.00;;;0.52;;
73296;SDS011;61524;50.938;11.396;2022-08-01T14:33:32;2.67;;;0.63;;
73296;SDS011;61524;50.938;11.396;2022-08-01T14:35:58;0.73;;;0.50;;
73296;SDS011;61524;50.938;11.396;2022-08-01T14:38:24;1.10;;;0.70;;
73296;SDS011;61524;50.938;11.396;2022-08-01T14:40:49;2.38;;;0.70;;
73296;SDS011;61524;50.938;11.396;2022-08-01T14:43:18;2.50;;;0.55;;
73296;SDS011;61524;50.938;11.396;2022-08-01T14:45:44;1.30;;;0.50;;
73296;SDS011;61524;50.938;11.396;2022-08-01T14:48:09;1.45;;;0.52;;
73296;SDS011;61524;50.938;11.396;2022-08-01T14:50:35;2.70;;;0.70;;
73296;SDS011;61524;50.938;11.396;2022-08-01T14:53:00;1.13;;;0.60;;
73296;SDS011;61524;50.938;11.396;2022-08-01T14:55:26;1.80;;;0.70;;
73296;SDS011;61524;50.938;11.396;2022-08-01T14:57:52;0.93;;;0.55;;
73296;SDS011;61524;50.938;11.396;2022-08-01T15:00:18;1.27;;;0.60;;
73296;SDS011;61524;50.938;11.396;2022-08-01T15:02:44;0.57;;;0.43;;
73296;SDS011;61524;50.938;11.396;2022-08-01T15:05:10;1.77;;;0.50;;
73296;SDS011;61524;50.938;11.396;2022-08-01T15:07:36;1.63;;;0.60;;
73296;SDS011;61524;50.938;11.396;2022-08-01T15:10:03;1.92;;;0.60;;
73296;SDS011;61524;50.938;11.396;2022-08-01T15:12:30;1.38;;;0.65;;
73296;SDS011;61524;50.938;11.396;2022-08-01T15:14:56;3.10;;;1.10;;
73296;SDS011;61524;50.938;11.396;2022-08-01T15:17:26;1.50;;;0.60;;
73296;SDS011;61524;50.938;11.396;2022-08-01T15:20:01;1.90;;;0.50;;
73296;SDS011;61524;50.938;11.396;2022-08-01T15:22:31;2.00;;;0.70;;
73296;SDS011;61524;50.938;11.396;2022-08-01T15:24:57;2.85;;;0.63;;
73296;SDS011;61524;50.938;11.396;2022-08-01T15:27:24;1.13;;;0.60;;
73296;SDS011;61524;50.938;11.396;2022-08-01T15:29:50;1.67;;;0.43;;
73296;SDS011;61524;50.938;11.396;2022-08-01T15:32:16;1.67;;;0.63;;